This is the latest recevied weather packets stored in our database for station/object VE4GLS. If no packets are shown the sender has not sent any weather packets the latest 1 day(s).
| Time | Temp. | Humidity | Pressure | Rain* | Wind** | Luminosity | Snow |
|---|---|---|---|---|---|---|---|
| 1778007983 | 3.33° C | 60% | 1011.5 hPa | 0 mm | 6.71 m/s, 321° | - | - |
| 1778007755 | 3.33° C | 60% | 1011.5 hPa | 0 mm | 5.81 m/s, 309° | - | - |
| 1778007382 | 3.33° C | 60% | 1011.4 hPa | 0 mm | 5.36 m/s, 317° | - | - |
| 1778006854 | 2.78° C | 61% | 1011.5 hPa | 0 mm | 6.71 m/s, 317° | - | - |
| 1778006782 | 2.78° C | 61% | 1011.4 hPa | 0 mm | 6.71 m/s, 317° | - | - |
| 1778006182 | 2.78° C | 60% | 1011.4 hPa | 0 mm | 6.26 m/s, 314° | - | - |
| 1778005955 | 2.78° C | 59% | 1011.3 hPa | 0 mm | 7.15 m/s, 316° | - | - |
| 1778005583 | 2.78° C | 59% | 1011.3 hPa | 0 mm | 7.15 m/s, 303° | - | - |
| 1778005055 | 3.33° C | 60% | 1011.2 hPa | 0 mm | 6.26 m/s, 312° | - | - |
| 1778004983 | 3.33° C | 59% | 1011.2 hPa | 0 mm | 3.13 m/s, 326° | - | - |
| 1778004383 | 2.78° C | 67% | 1011.1 hPa | 0 mm | 5.81 m/s, 4° | - | - |
| 1778004155 | 2.22° C | 63% | 1011.1 hPa | 0 mm | 4.02 m/s, 310° | - | - |
| 1778003783 | 2.22° C | 62% | 1011.1 hPa | 0 mm | 8.05 m/s, 313° | - | - |
| 1778003255 | 2.22° C | 64% | 1011.1 hPa | 0 mm | 7.6 m/s, 302° | - | - |
| 1778003183 | 2.22° C | 64% | 1011.1 hPa | 0 mm | 6.71 m/s, 310° | - | - |
| 1778002583 | 2.22° C | 64% | 1011.1 hPa | 0 mm | 6.26 m/s, 295° | - | - |
| 1778002355 | 2.22° C | 65% | 1011.1 hPa | 0 mm | 6.26 m/s, 327° | - | - |
| 1778001982 | 2.22° C | 64% | 1011 hPa | 0 mm | 5.36 m/s, 309° | - | - |
| 1778001454 | 1.67° C | 66% | 1011 hPa | 0 mm | 5.81 m/s, 301° | - | - |
| 1778001382 | 1.67° C | 66% | 1011 hPa | 0 mm | 7.15 m/s, 323° | - | - |
| 1778000782 | 1.67° C | 66% | 1010.9 hPa | 0 mm | 8.05 m/s, 326° | - | - |
| 1778000554 | 1.67° C | 67% | 1010.9 hPa | 0 mm | 4.47 m/s, 345° | - | - |
| 1778000182 | 1.11° C | 69% | 1010.9 hPa | 0 mm | 5.81 m/s, 326° | - | - |
| 1777999656 | 1.11° C | 71% | 1010.8 hPa | 0 mm | 7.15 m/s, 319° | - | - |
| 1777999584 | 1.11° C | 70% | 1010.8 hPa | 0 mm | 5.36 m/s, 306° | - | - |
* Rain latest hour (hover to see other rain measurements)
** Current wind speed in m/s (hover to see current wind gust speed)